Weather at Toronto (Mississauga Credit Valley Hospital) Heliport

Public forecast

Using degrees Celsius for public forecast. Weather courtesy of forecast.io.

Closest aviation weather report (METAR) to Toronto (Mississauga Credit Valley Hospital) Heliport

Report is more than 6 hours old.

Closest report is Lester B. Pearson International Airport, 7.6 nm (14.1 km) NNE.

2022/11/14 15:00 (retrieved 2 years ago)

CYYZ 141500Z 28007KT 15SM BKN045 BKN220 02/M06 A3036 RMK SC7CI1 CI TR SLP291

Closest aviation forecast (TAF) to Toronto (Mississauga Credit Valley Hospital) Heliport

Forecast is more than 12 hours old.

Closest forecast is Lester B. Pearson International Airport, 7.6 nm (14.1 km) NNE.

2023/02/22 18:42 (retrieved 1 year ago)

TAF CYYZ 221740Z 2218/2324 06012G22KT P6SM -SN SCT015 BKN025 OVC040 TEMPO 2218/2220 2SM -SN BKN015 OVC025 FM222000 07012G22KT 1 1/2SM -SN OVC015 TEMPO 2220/2222 6SM -SN OVC025 FM222200 07012G22KT 3/4SM -SN VV008 TEMPO 2222/2301 1SM -SN OVC012 FM230100 06015G25KT 1/4SM +SN BLSN VV004 PROB40 2301/2304 1/2SM SNPL VV006 FM230400 06012G22KT 3/4SM -PLSN VV008 PROB30 2304/2306 1/4SM +SN VV004 FM230700 04012G22KT 2SM -PL BR BKN008 OVC015 PROB30 2307/2309 6SM -FZRA BR FM230900 02012G22KT 6SM -FZDZ BR SCT008 OVC015 PROB30 2309/2318 2SM -PL BR BKN008 OVC015 FM231800 08008KT P6SM -PL SCT008 OVC015 FM232200 08010KT 2SM -FZDZ BR BKN006 OVC010 PROB30 2322/2324 6SM -FZRA BR SCT006 OVC010 RMK NXT FCST BY 222100Z